Time;durP1;ratioP1;P1;durP2;ratioP2;P2;SDS_P1;SDS_P2;PMS_P1;PMS_P2;Temp;Humidity;BMP_temperature;BMP_pressure;BME280_temperature;BME280_humidity;BME280_pressure;Samples;Min_cycle;Max_cycle;Signal;HPM_P1;HPM_P2
2021/07/22 00:00:25;;;;;;;10.57;6.25;;;;;;;27.82;50.70;101411.56;5014521;28;20046;-65
2021/07/22 00:02:52;;;;;;;9.75;5.68;;;;;;;27.80;50.83;101407.41;5014248;28;20046;-65
2021/07/22 00:05:19;;;;;;;11.00;5.95;;;;;;;27.78;50.73;101412.97;5014126;28;20118;-65
2021/07/22 00:07:47;;;;;;;13.52;6.40;;;;;;;27.76;50.82;101412.31;5014200;28;20041;-64
2021/07/22 00:10:15;;;;;;;10.95;6.25;;;;;;;27.75;50.80;101413.34;5013945;28;20089;-65
2021/07/22 00:12:42;;;;;;;10.02;5.80;;;;;;;27.75;50.90;101418.72;5014100;28;20045;-65
2021/07/22 00:15:10;;;;;;;13.98;6.80;;;;;;;27.74;51.02;101419.75;5014013;28;20447;-65
2021/07/22 00:17:37;;;;;;;11.85;6.15;;;;;;;27.73;51.22;101422.63;5014153;28;20065;-65
2021/07/22 00:20:05;;;;;;;10.20;6.07;;;;;;;27.75;51.02;101413.34;5013891;28;20050;-65
2021/07/22 00:22:36;;;;;;;12.23;6.47;;;;;;;27.73;50.97;101419.94;5013885;28;20054;-65
2021/07/22 00:25:07;;;;;;;13.55;5.88;;;;;;;27.70;51.16;101426.53;5013755;28;20045;-65
2021/07/22 00:27:34;;;;;;;9.63;5.95;;;;;;;27.68;51.42;101417.78;5013716;28;20045;-65
2021/07/22 00:30:01;;;;;;;11.95;6.45;;;;;;;27.65;51.39;101418.16;5013702;28;20406;-65
2021/07/22 00:32:27;;;;;;;8.73;5.95;;;;;;;27.65;51.10;101410.06;5013694;28;20046;-65
2021/07/22 00:34:54;;;;;;;11.77;6.30;;;;;;;27.70;50.99;101418.44;5013649;28;20107;-63
2021/07/22 00:37:21;;;;;;;11.80;6.00;;;;;;;27.66;51.28;101420.66;5013482;28;20096;-63
2021/07/22 00:39:47;;;;;;;11.70;6.53;;;;;;;27.65;51.35;101418.16;5013499;28;20096;-63
2021/07/22 00:42:14;;;;;;;13.02;6.20;;;;;;;27.60;51.29;101416.00;5013640;28;20458;-62
2021/07/22 00:44:41;;;;;;;10.18;6.25;;;;;;;27.57;51.46;101419.06;5013544;28;20092;-63
2021/07/22 00:47:07;;;;;;;10.55;6.30;;;;;;;27.56;51.49;101424.66;5013408;28;20076;-63
2021/07/22 00:49:34;;;;;;;8.77;6.20;;;;;;;27.56;51.44;101424.66;5013359;28;20049;-63
2021/07/22 00:52:00;;;;;;;8.18;6.13;;;;;;;27.51;51.29;101414.41;5013290;28;20050;-63
2021/07/22 00:54:27;;;;;;;9.15;6.00;;;;;;;27.48;51.40;101421.00;5013063;28;20100;-62
2021/07/22 00:56:54;;;;;;;9.98;5.50;;;;;;;27.45;51.58;101424.09;5013281;28;20416;-63
2021/07/22 00:59:20;;;;;;;14.10;6.60;;;;;;;27.44;51.53;101411.63;5013245;28;20104;-63
2021/07/22 01:01:47;;;;;;;10.43;6.20;;;;;;;27.43;51.33;101411.81;5013113;28;20107;-63
2021/07/22 01:04:14;;;;;;;10.20;6.10;;;;;;;27.40;51.16;101399.53;5013011;28;20045;-64
2021/07/22 01:06:40;;;;;;;9.30;5.80;;;;;;;27.37;51.59;101405.25;5013004;28;20053;-63
2021/07/22 01:09:07;;;;;;;7.97;5.75;;;;;;;27.34;51.68;101402.91;5012932;28;20045;-62
2021/07/22 01:11:33;;;;;;;11.45;5.63;;;;;;;27.33;51.49;101402.06;5013008;28;20065;-63
2021/07/22 01:14:00;;;;;;;9.27;6.10;;;;;;;27.31;51.74;101406.81;5013025;28;20561;-63
2021/07/22 01:16:27;;;;;;;12.73;6.85;;;;;;;27.33;51.43;101402.06;5013126;28;20054;-62
2021/07/22 01:18:54;;;;;;;9.05;5.97;;;;;;;27.31;51.60;101404.13;5012874;28;20046;-63
2021/07/22 01:21:22;;;;;;;12.48;6.18;;;;;;;27.29;51.50;101405.34;5012689;28;20080;-63
2021/07/22 01:23:49;;;;;;;11.45;6.55;;;;;;;27.29;51.76;101408.84;5012866;28;20042;-62
2021/07/22 01:26:15;;;;;;;10.55;6.95;;;;;;;27.25;51.55;101404.84;5012715;28;20046;-63
2021/07/22 01:28:42;;;;;;;13.45;7.32;;;;;;;27.23;51.56;101409.56;5012698;28;20081;-62
2021/07/22 01:31:08;;;;;;;14.77;6.60;;;;;;;27.20;51.54;101410.78;5012773;28;20056;-63
2021/07/22 01:33:35;;;;;;;12.15;6.10;;;;;;;27.19;51.52;101419.03;5012980;28;20045;-62
2021/07/22 01:36:02;;;;;;;15.35;6.93;;;;;;;27.16;51.68;101422.09;5012570;28;20076;-63
2021/07/22 01:38:28;;;;;;;9.07;5.50;;;;;;;27.16;51.62;101420.25;5012718;28;20152;-63
2021/07/22 01:40:55;;;;;;;12.63;6.85;;;;;;;27.13;51.59;101420.59;5012552;28;20053;-63
2021/07/22 01:43:21;;;;;;;9.15;6.38;;;;;;;27.14;51.37;101418.75;5012534;28;20054;-62
2021/07/22 01:45:48;;;;;;;10.30;6.38;;;;;;;27.13;51.64;101417.06;5012639;28;20049;-63
2021/07/22 01:48:14;;;;;;;11.25;6.22;;;;;;;27.11;51.26;101422.63;5012710;28;20049;-62
2021/07/22 01:50:41;;;;;;;9.18;6.20;;;;;;;27.10;51.52;101414.75;5012658;28;20045;-62
2021/07/22 01:53:08;;;;;;;11.82;6.07;;;;;;;27.07;51.46;101423.16;5012364;28;20561;-63
2021/07/22 01:55:34;;;;;;;12.52;7.10;;;;;;;27.03;51.70;101414.59;5012491;28;20498;-63
2021/07/22 01:58:01;;;;;;;9.98;6.20;;;;;;;27.02;51.49;101419.16;5012414;28;20100;-63
2021/07/22 02:00:28;;;;;;;9.30;6.65;;;;;;;27.02;51.55;101421.00;5012319;28;20479;-63
2021/07/22 02:02:54;;;;;;;8.95;6.28;;;;;;;26.95;51.69;101418.19;5012367;28;20050;-62
2021/07/22 02:05:21;;;;;;;8.50;6.28;;;;;;;26.97;51.61;101418.88;5012911;28;20050;-63
2021/07/22 02:07:48;;;;;;;10.73;6.75;;;;;;;26.98;51.64;101417.00;5016462;28;20049;-63
2021/07/22 02:10:14;;;;;;;10.90;6.50;;;;;;;26.99;51.68;101410.59;5016277;28;20100;-63
2021/07/22 02:12:41;;;;;;;11.95;6.85;;;;;;;26.96;51.81;101411.78;5016566;28;20474;-62
2021/07/22 02:15:08;;;;;;;11.73;6.68;;;;;;;26.94;51.70;101415.69;5016178;28;20050;-63
2021/07/22 02:17:34;;;;;;;8.60;6.20;;;;;;;26.94;51.71;101413.81;5016312;28;20046;-63
2021/07/22 02:20:01;;;;;;;12.68;7.15;;;;;;;26.93;51.72;101412.16;5016122;28;20069;-62
2021/07/22 02:22:28;;;;;;;11.75;6.57;;;;;;;26.95;51.53;101417.38;5016107;28;20498;-63
2021/07/22 02:24:54;;;;;;;14.70;6.57;;;;;;;26.94;51.65;101421.06;5016105;28;20069;-63
2021/07/22 02:27:21;;;;;;;10.32;5.95;;;;;;;26.93;51.58;101422.94;5015773;28;20441;-63
2021/07/22 02:29:48;;;;;;;9.10;6.25;;;;;;;26.93;51.53;101431.03;5016140;28;20041;-63
2021/07/22 02:32:14;;;;;;;11.95;6.80;;;;;;;26.88;51.76;101428.84;5015871;28;20104;-63
2021/07/22 02:34:41;;;;;;;11.68;6.47;;;;;;;26.86;51.81;101427.34;5015868;28;20041;-63
2021/07/22 02:37:07;;;;;;;13.38;6.43;;;;;;;26.84;51.83;101430.22;5015840;28;20045;-63
2021/07/22 02:39:38;;;;;;;11.98;6.50;;;;;;;26.81;52.02;101437.81;5015883;28;20108;-63
2021/07/22 02:42:05;;;;;;;9.32;6.22;;;;;;;26.81;52.09;101441.34;5015815;28;20085;-63
2021/07/22 02:44:38;;;;;;;8.85;5.65;;;;;;;26.78;52.11;101441.72;5015779;28;20046;-63
2021/07/22 02:47:10;;;;;;;13.68;6.25;;;;;;;26.72;52.31;101442.38;5015705;28;20053;-63
2021/07/22 02:49:37;;;;;;;8.68;6.53;;;;;;;26.69;52.50;101440.03;5015836;28;20100;-62
2021/07/22 02:52:05;;;;;;;13.45;6.20;;;;;;;26.68;52.56;101454.53;5015637;28;20148;-65
2021/07/22 02:54:32;;;;;;;12.40;6.45;;;;;;;26.63;52.63;101449.66;5015666;28;20104;-63
2021/07/22 02:56:59;;;;;;;12.45;7.10;;;;;;;26.61;52.66;101453.53;5015408;28;20046;-62
2021/07/22 02:59:26;;;;;;;11.70;6.30;;;;;;;26.59;52.73;101450.19;5015688;28;20050;-63
2021/07/22 03:01:52;;;;;;;14.85;7.13;;;;;;;26.58;53.02;101453.91;5014399;28;20053;-63
2021/07/22 03:04:19;;;;;;;13.27;7.07;;;;;;;26.55;53.00;101461.31;5011408;28;20192;-63
2021/07/22 03:06:46;;;;;;;9.77;6.28;;;;;;;26.57;52.92;101463.81;5012077;28;20061;-63
2021/07/22 03:09:12;;;;;;;12.85;6.80;;;;;;;26.59;53.03;101471.72;5011781;28;20073;-63
2021/07/22 03:11:39;;;;;;;12.73;6.60;;;;;;;26.58;53.04;101470.06;5011900;28;20104;-63
2021/07/22 03:14:06;;;;;;;12.75;6.95;;;;;;;26.60;53.01;101465.31;5011738;28;20057;-63
2021/07/22 03:16:32;;;;;;;8.30;6.10;;;;;;;26.58;53.03;101462.81;5011506;28;20077;-63
2021/07/22 03:18:59;;;;;;;10.82;6.45;;;;;;;26.60;52.95;101468.00;5011554;28;20049;-64
2021/07/22 03:21:25;;;;;;;11.18;6.82;;;;;;;26.56;53.02;101460.31;5011636;28;20129;-63
2021/07/22 03:23:52;;;;;;;8.45;5.88;;;;;;;26.55;53.09;101455.06;5011462;28;20104;-63
2021/07/22 03:26:18;;;;;;;10.18;6.20;;;;;;;26.54;53.01;101448.88;5011311;28;20422;-63
2021/07/22 03:28:45;;;;;;;10.02;6.22;;;;;;;26.52;52.99;101442.81;5011598;28;20100;-64
2021/07/22 03:31:12;;;;;;;12.30;6.30;;;;;;;26.52;52.81;101434.72;5011230;28;20053;-63
2021/07/22 03:33:38;;;;;;;9.73;5.63;;;;;;;26.50;52.73;101436.78;5011244;28;20052;-63
2021/07/22 03:36:05;;;;;;;10.02;6.40;;;;;;;26.49;52.71;101436.97;5011148;28;20493;-63
2021/07/22 03:38:32;;;;;;;12.30;6.40;;;;;;;26.50;52.60;101438.59;5011407;28;20046;-63
2021/07/22 03:40:58;;;;;;;11.13;5.80;;;;;;;26.50;52.73;101449.38;5011110;28;20061;-64
2021/07/22 03:43:25;;;;;;;10.30;5.80;;;;;;;26.48;52.49;101452.25;5011326;28;20103;-63
2021/07/22 03:45:59;;;;;;;12.32;5.50;;;;;;;26.45;52.48;101454.44;5011188;28;20042;-64
2021/07/22 03:48:26;;;;;;;10.90;5.90;;;;;;;26.43;52.55;101451.94;5011429;28;20054;-63
2021/07/22 03:50:52;;;;;;;10.18;5.75;;;;;;;26.44;52.59;101447.41;5010985;28;20054;-63
2021/07/22 03:53:19;;;;;;;9.68;5.78;;;;;;;26.41;52.48;101448.59;5010801;28;20045;-63
2021/07/22 03:55:46;;;;;;;9.95;6.45;;;;;;;26.37;52.32;101440.03;5011081;28;20046;-63
2021/07/22 03:58:13;;;;;;;9.70;5.95;;;;;;;26.38;52.30;101449.75;5010978;28;20050;-63
2021/07/22 04:00:39;;;;;;;10.35;5.93;;;;;;;26.34;52.45;101445.75;5010672;28;20465;-63
2021/07/22 04:03:06;;;;;;;11.57;6.55;;;;;;;26.35;52.59;101450.13;5010829;28;20050;-63
2021/07/22 04:05:33;;;;;;;8.98;6.05;;;;;;;26.32;52.49;101444.25;5010878;28;20486;-63
2021/07/22 04:08:00;;;;;;;12.32;5.90;;;;;;;26.32;52.53;101449.63;5010827;28;20096;-63
2021/07/22 04:10:29;;;;;;;13.48;5.35;;;;;;;26.32;52.42;101447.78;5010668;28;20103;-62
2021/07/22 04:13:00;;;;;;;11.98;6.38;;;;;;;26.30;52.50;101455.19;5010813;28;20487;-63
2021/07/22 04:15:28;;;;;;;9.50;6.05;;;;;;;26.30;52.46;101452.50;5010514;28;20104;-63
2021/07/22 04:17:55;;;;;;;12.55;5.88;;;;;;;26.29;52.55;101455.38;5010438;28;20089;-64
2021/07/22 04:20:24;;;;;;;10.82;5.82;;;;;;;26.28;52.61;101454.50;5010529;28;20058;-63
2021/07/22 04:22:52;;;;;;;10.02;6.00;;;;;;;26.27;52.67;101452.84;5010549;28;20549;-63
2021/07/22 04:25:19;;;;;;;13.00;6.30;;;;;;;26.27;52.54;101457.38;5010360;28;20116;-63
2021/07/22 04:27:46;;;;;;;10.40;6.63;;;;;;;26.25;52.81;101468.31;5009846;28;20522;-63
2021/07/22 04:30:13;;;;;;;11.82;6.15;;;;;;;26.26;52.79;101467.31;5010178;28;20473;-63
2021/07/22 04:32:40;;;;;;;11.10;6.03;;;;;;;26.21;52.91;101462.44;5010187;28;20561;-63
2021/07/22 04:35:10;;;;;;;11.35;5.97;;;;;;;26.20;53.00;101471.53;5010168;28;20065;-63
2021/07/22 04:37:37;;;;;;;14.70;6.47;;;;;;;26.21;53.06;101481.28;5010296;28;20053;-62
2021/07/22 04:40:08;;;;;;;11.27;6.18;;;;;;;26.22;52.99;101479.41;5009863;28;20092;-63
2021/07/22 04:42:35;;;;;;;11.77;6.25;;;;;;;26.22;53.18;101479.41;5010170;28;20073;-63
2021/07/22 04:45:02;;;;;;;11.50;6.63;;;;;;;26.24;53.46;101486.34;5010390;28;20054;-63
2021/07/22 04:47:29;;;;;;;11.10;6.55;;;;;;;26.26;53.14;101487.97;5009986;28;20049;-63
2021/07/22 04:49:56;;;;;;;12.38;7.07;;;;;;;26.23;53.40;101476.56;5009833;28;20077;-63
2021/07/22 04:52:22;;;;;;;11.95;6.97;;;;;;;26.26;53.57;101482.59;5010052;28;20061;-64
2021/07/22 04:54:49;;;;;;;11.70;7.10;;;;;;;26.31;53.27;101481.09;5009813;28;20490;-63
2021/07/22 04:57:15;;;;;;;12.75;7.28;;;;;;;26.33;53.26;101483.59;5009862;28;20049;-63
2021/07/22 04:59:42;;;;;;;11.73;6.97;;;;;;;26.35;53.39;101479.72;5009930;28;20425;-62
2021/07/22 05:02:09;;;;;;;15.27;7.30;;;;;;;26.39;53.45;101490.97;5009597;28;20115;-63
2021/07/22 05:04:36;;;;;;;12.88;7.20;;;;;;;26.43;53.54;101499.56;5009903;28;20096;-63
2021/07/22 05:07:04;;;;;;;13.98;6.93;;;;;;;26.46;53.47;101491.13;5009618;28;20049;-63
2021/07/22 05:09:31;;;;;;;9.88;6.53;;;;;;;26.48;53.52;101491.78;5009921;28;20108;-63
2021/07/22 05:11:58;;;;;;;12.63;7.07;;;;;;;26.53;53.31;101492.13;5009495;28;20049;-63
2021/07/22 05:14:24;;;;;;;14.73;7.13;;;;;;;26.54;53.38;101496.50;5009675;28;20050;-62
2021/07/22 05:16:51;;;;;;;12.85;7.35;;;;;;;26.56;53.41;101494.44;5009418;28;20046;-63
2021/07/22 05:19:18;;;;;;;10.93;7.00;;;;;;;26.59;53.38;101499.50;5009483;28;20449;-62
2021/07/22 05:21:44;;;;;;;14.38;6.93;;;;;;;26.64;53.34;101493.56;5009510;28;20457;-63
2021/07/22 05:24:11;;;;;;;10.80;6.18;;;;;;;26.64;53.19;101494.41;5009598;28;20049;-64
2021/07/22 05:26:37;;;;;;;11.70;6.20;;;;;;;26.69;53.20;101502.81;5009581;28;20108;-63
2021/07/22 05:29:04;;;;;;;11.45;6.15;;;;;;;26.75;52.90;101503.16;5009329;28;20057;-63
2021/07/22 05:31:31;;;;;;;10.68;6.32;;;;;;;26.78;52.71;101505.47;5009434;28;20124;-63
2021/07/22 05:33:57;;;;;;;10.45;6.00;;;;;;;26.78;52.84;101510.88;5009063;28;20132;-63
2021/07/22 05:36:24;;;;;;;11.18;6.03;;;;;;;26.86;52.53;101505.47;5009238;28;20045;-63
2021/07/22 05:38:51;;;;;;;9.65;6.03;;;;;;;26.93;52.44;101510.97;5009840;28;20046;-63
2021/07/22 05:41:17;;;;;;;9.88;5.93;;;;;;;27.00;52.13;101509.25;5007997;28;20065;-64
2021/07/22 05:43:44;;;;;;;9.55;6.10;;;;;;;27.06;52.30;101513.94;5009454;28;20100;-63
2021/07/22 05:46:10;;;;;;;10.88;6.05;;;;;;;27.11;51.79;101516.06;5008989;28;20092;-63
2021/07/22 05:48:37;;;;;;;8.65;5.90;;;;;;;27.16;52.13;101519.94;5009401;28;20474;-63
2021/07/22 05:51:04;;;;;;;8.80;5.60;;;;;;;27.21;52.03;101519.38;5008864;28;20050;-63
2021/07/22 05:53:30;;;;;;;10.68;5.43;;;;;;;27.25;51.83;101520.72;5008979;28;20050;-63
2021/07/22 05:55:59;;;;;;;12.48;5.65;;;;;;;27.30;51.59;101526.41;5008843;28;20050;-63
2021/07/22 05:58:25;;;;;;;10.02;5.90;;;;;;;27.36;51.75;101523.00;5008903;28;20482;-63
2021/07/22 06:00:52;;;;;;;11.00;5.18;;;;;;;27.42;51.28;101528.72;5009028;28;20050;-63
2021/07/22 06:03:19;;;;;;;8.88;5.53;;;;;;;27.45;51.38;101531.91;5008935;28;20559;-63
2021/07/22 06:05:46;;;;;;;8.23;5.25;;;;;;;27.48;50.98;101528.84;5009129;28;20461;-63
2021/07/22 06:08:13;;;;;;;11.82;5.93;;;;;;;27.49;50.84;101527.81;5008924;28;20093;-63
2021/07/22 06:10:40;;;;;;;8.02;5.65;;;;;;;27.50;51.07;101528.66;5009008;28;20093;-63
2021/07/22 06:13:06;;;;;;;9.32;5.30;;;;;;;27.43;51.04;101520.47;5008667;28;20057;-63
2021/07/22 06:15:33;;;;;;;10.18;5.75;;;;;;;27.35;51.13;101523.16;5008770;28;20049;-63
2021/07/22 06:18:00;;;;;;;11.35;5.85;;;;;;;27.19;52.06;101513.34;5008816;28;20046;-63
2021/07/22 06:20:26;;;;;;;9.55;5.63;;;;;;;27.10;52.27;101514.44;5008539;28;20046;-63
2021/07/22 06:22:53;;;;;;;8.23;5.68;;;;;;;27.14;52.47;101521.13;5008574;28;20050;-63
2021/07/22 06:25:19;;;;;;;11.38;6.30;;;;;;;27.30;51.98;101517.47;5008668;28;20046;-63
2021/07/22 06:27:46;;;;;;;14.25;6.15;;;;;;;27.33;52.02;101523.34;5008568;28;20058;-63
2021/07/22 06:30:13;;;;;;;13.18;5.68;;;;;;;27.52;51.83;101513.16;5008896;28;20050;-63
2021/07/22 06:32:39;;;;;;;7.78;5.35;;;;;;;27.65;51.67;101517.94;5008669;28;20066;-63
2021/07/22 06:35:07;;;;;;;11.82;5.65;;;;;;;27.72;51.37;101518.03;5008423;28;20262;-64
2021/07/22 06:37:48;;;;;;;10.50;5.68;;;;;;;27.81;51.30;101512.38;5008681;28;20115;-63
2021/07/22 06:40:15;;;;;;;10.70;5.82;;;;;;;27.92;51.19;101510.28;5008854;28;20089;-64
2021/07/22 06:42:43;;;;;;;8.48;5.55;;;;;;;27.99;51.16;101509.34;5008737;28;20483;-65
2021/07/22 06:45:10;;;;;;;9.40;5.93;;;;;;;28.05;50.98;101513.22;5008551;28;20053;-63
2021/07/22 06:47:40;;;;;;;10.65;6.05;;;;;;;28.07;50.73;101513.03;5008598;28;20176;-63
2021/07/22 06:50:08;;;;;;;11.68;6.15;;;;;;;28.16;50.53;101499.28;5008330;28;20462;-63
2021/07/22 06:52:38;;;;;;;10.23;6.05;;;;;;;28.27;50.44;101502.53;5010981;28;20058;-63
2021/07/22 06:55:06;;;;;;;9.10;5.85;;;;;;;28.37;50.56;101502.22;5012144;28;20054;-63
2021/07/22 06:57:33;;;;;;;9.85;5.70;;;;;;;28.47;50.44;101502.81;5010949;28;20054;-63
2021/07/22 07:00:00;;;;;;;11.20;5.57;;;;;;;28.50;49.97;101497.84;5012066;28;20103;-63
2021/07/22 07:02:27;;;;;;;7.95;5.65;;;;;;;28.52;49.93;101495.81;5012121;28;20049;-64
2021/07/22 07:04:54;;;;;;;10.88;5.60;;;;;;;28.59;49.55;101495.06;5011863;28;20053;-63
2021/07/22 07:07:20;;;;;;;10.20;5.85;;;;;;;28.65;49.63;101505.94;5011739;28;20042;-63
2021/07/22 07:09:47;;;;;;;11.20;5.32;;;;;;;28.72;49.80;101508.78;5011901;28;20108;-63
2021/07/22 07:12:13;;;;;;;12.35;5.50;;;;;;;28.81;49.23;101506.78;5011859;28;20046;-64
2021/07/22 07:14:41;;;;;;;8.80;5.43;;;;;;;28.89;49.10;101508.56;5011905;28;20046;-64
2021/07/22 07:17:07;;;;;;;12.05;5.65;;;;;;;28.97;48.92;101511.94;5011753;28;20076;-63
2021/07/22 07:19:34;;;;;;;9.98;5.47;;;;;;;29.05;48.77;101508.31;5011690;28;20046;-64
2021/07/22 07:22:01;;;;;;;10.82;5.40;;;;;;;29.06;48.73;101506.44;5011513;28;20052;-64
2021/07/22 07:24:27;;;;;;;8.07;5.50;;;;;;;29.12;48.79;101511.91;5011755;28;20173;-64
2021/07/22 07:26:54;;;;;;;11.82;5.40;;;;;;;29.12;48.48;101509.22;5011508;28;20046;-63
2021/07/22 07:29:20;;;;;;;33.42;7.05;;;;;;;29.19;48.46;101503.88;5011569;28;20108;-63
2021/07/22 07:31:47;;;;;;;34.88;7.18;;;;;;;29.25;47.97;101502.28;5011335;28;20563;-63
2021/07/22 07:34:14;;;;;;;52.35;7.57;;;;;;;29.31;47.66;101505.06;5011266;28;20120;-63
2021/07/22 07:36:44;;;;;;;32.40;6.55;;;;;;;29.41;46.89;101506.63;5011557;28;20100;-63
2021/07/22 07:39:13;;;;;;;31.98;7.68;;;;;;;29.54;46.55;101517.56;5011454;28;20079;-63
2021/07/22 07:41:40;;;;;;;24.88;7.13;;;;;;;29.63;46.13;101510.16;5011455;28;20096;-63
2021/07/22 07:44:06;;;;;;;30.00;6.95;;;;;;;29.74;45.41;101516.91;5011076;28;20417;-63
2021/07/22 07:46:33;;;;;;;10.98;6.50;;;;;;;29.57;45.83;101514.47;5011233;28;20392;-63
2021/07/22 07:49:00;;;;;;;52.47;8.48;;;;;;;29.44;45.92;101520.56;5010994;28;20045;-64
2021/07/22 07:51:26;;;;;;;70.90;9.15;;;;;;;29.61;44.83;101521.16;5011067;28;20573;-66
2021/07/22 07:53:53;;;;;;;75.80;9.40;;;;;;;29.85;43.95;101519.06;5011029;28;20629;-63
2021/07/22 07:56:20;;;;;;;14.48;7.25;;;;;;;29.99;43.29;101521.91;5011054;28;20046;-64
2021/07/22 07:58:47;;;;;;;107.55;10.55;;;;;;;30.13;42.35;101521.81;5011161;28;20050;-66
2021/07/22 08:01:13;;;;;;;21.42;7.47;;;;;;;30.34;41.73;101522.75;5010845;28;20104;-65
2021/07/22 08:03:40;;;;;;;57.00;8.10;;;;;;;30.55;41.12;101513.72;5009757;28;20050;-63
2021/07/22 08:06:07;;;;;;;13.00;6.57;;;;;;;30.74;40.72;101511.28;5010657;28;20136;-64
2021/07/22 08:08:33;;;;;;;9.60;6.72;;;;;;;30.81;40.40;101514.88;5010762;28;20548;-64
2021/07/22 08:11:00;;;;;;;14.95;7.20;;;;;;;30.87;40.05;101524.06;5010613;28;20446;-64
2021/07/22 08:13:28;;;;;;;12.88;7.03;;;;;;;30.92;39.68;101517.00;5010881;28;20058;-64
2021/07/22 08:15:54;;;;;;;13.48;7.22;;;;;;;30.98;39.66;101514.50;5010690;28;20096;-64
2021/07/22 08:18:21;;;;;;;11.70;7.30;;;;;;;31.16;39.39;101509.38;5010337;28;20050;-65
2021/07/22 08:20:47;;;;;;;15.88;6.85;;;;;;;31.17;38.84;101516.44;5010706;28;20046;-63
2021/07/22 08:23:14;;;;;;;9.85;6.95;;;;;;;31.35;38.92;101513.16;5010346;28;20053;-64
2021/07/22 08:25:41;;;;;;;32.28;7.60;;;;;;;31.36;38.96;101509.41;5010482;28;20046;-63
2021/07/22 08:28:11;;;;;;;11.82;6.95;;;;;;;30.92;39.24;101503.44;5010286;28;20141;-64
2021/07/22 08:30:37;;;;;;;11.55;6.88;;;;;;;30.89;39.71;101514.72;5010290;28;20116;-62
2021/07/22 08:33:04;;;;;;;9.73;7.20;;;;;;;31.11;38.99;101509.16;5010095;28;20050;-63
2021/07/22 08:35:31;;;;;;;10.00;6.78;;;;;;;31.29;38.46;101513.97;5010244;28;20054;-62
2021/07/22 08:37:58;;;;;;;13.30;6.55;;;;;;;31.38;38.03;101512.72;5010330;28;20053;-62
2021/07/22 08:40:26;;;;;;;12.15;6.97;;;;;;;31.57;37.50;101511.06;5009958;28;20097;-62
2021/07/22 08:42:57;;;;;;;8.13;6.53;;;;;;;31.74;37.19;101513.41;5009960;28;20486;-62
2021/07/22 08:45:23;;;;;;;12.70;6.57;;;;;;;31.85;37.56;101503.81;5009958;28;20042;-62
2021/07/22 08:47:50;;;;;;;10.05;6.47;;;;;;;31.96;36.98;101507.75;5010010;28;20085;-63
2021/07/22 08:50:18;;;;;;;10.20;6.80;;;;;;;32.04;37.18;101508.34;5009944;28;20054;-62
2021/07/22 08:52:47;;;;;;;9.02;6.60;;;;;;;32.13;36.72;101494.56;5009969;28;20053;-62
2021/07/22 08:55:13;;;;;;;9.38;6.30;;;;;;;32.10;36.69;101498.53;5009879;28;20058;-63
2021/07/22 08:57:41;;;;;;;11.35;6.78;;;;;;;32.18;36.52;101498.34;5010401;28;20049;-62
2021/07/22 09:00:08;;;;;;;10.73;6.38;;;;;;;32.19;36.34;101502.72;5009774;28;20108;-62
2021/07/22 09:02:35;;;;;;;10.32;6.78;;;;;;;32.33;36.39;101503.53;5009790;28;20544;-63
2021/07/22 09:05:04;;;;;;;7.88;6.13;;;;;;;32.46;35.29;101502.63;5009819;28;20506;-62
2021/07/22 09:07:31;;;;;;;15.15;7.00;;;;;;;32.58;35.51;101497.34;5009558;28;20053;-62
2021/07/22 09:10:04;;;;;;;8.73;6.68;;;;;;;32.68;34.65;101494.19;5009825;28;20410;-63
2021/07/22 09:12:44;;;;;;;11.57;6.70;;;;;;;32.86;34.74;101496.19;5009492;28;20057;-62
2021/07/22 09:15:13;;;;;;;10.82;5.85;;;;;;;32.98;34.14;101494.47;5009340;28;20137;-62
2021/07/22 09:18:20;;;;;;;12.05;6.93;;;;;;;33.07;34.08;101494.22;5009524;28;20103;-62
2021/07/22 09:20:46;;;;;;;8.07;6.63;;;;;;;33.20;33.66;101488.69;5009350;28;20501;-62
2021/07/22 09:23:19;;;;;;;9.27;7.25;;;;;;;33.26;33.56;101486.97;5009276;28;20057;-62
2021/07/22 09:25:48;;;;;;;9.77;7.05;;;;;;;33.09;34.21;101497.53;5009231;28;20096;-63
2021/07/22 09:28:17;;;;;;;12.70;6.43;;;;;;;32.99;34.72;101492.56;5009282;28;20054;-62
2021/07/22 09:31:04;;;;;;;11.13;6.45;;;;;;;32.99;34.30;101498.00;5009188;28;20046;-62
2021/07/22 09:33:36;;;;;;;11.45;6.72;;;;;;;32.96;34.14;101493.03;5009397;28;20053;-65
2021/07/22 09:36:04;;;;;;;10.07;6.30;;;;;;;33.21;33.94;101493.06;5009005;28;20502;-62
2021/07/22 09:38:31;;;;;;;11.68;6.45;;;;;;;33.66;33.48;101494.81;5009466;28;20552;-63
2021/07/22 09:40:58;;;;;;;8.57;6.72;;;;;;;33.88;33.07;101497.16;5009028;28;20042;-62
2021/07/22 09:43:41;;;;;;;13.73;7.40;;;;;;;34.02;32.57;101491.34;5009275;28;20295;-63
2021/07/22 09:46:08;;;;;;;11.43;7.05;;;;;;;34.00;32.65;101490.78;5008894;28;20487;-62
2021/07/22 09:48:35;;;;;;;9.20;6.55;;;;;;;33.84;33.16;101494.91;5008902;28;20046;-64
2021/07/22 09:51:01;;;;;;;12.20;6.82;;;;;;;33.44;33.86;101497.94;5009144;28;20042;-63
2021/07/22 09:53:28;;;;;;;10.68;7.15;;;;;;;33.27;33.67;101504.94;5009042;28;20041;-63
2021/07/22 09:55:56;;;;;;;9.80;6.93;;;;;;;32.94;34.68;101495.97;5008877;28;20104;-62
2021/07/22 09:58:23;;;;;;;9.73;7.13;;;;;;;32.78;34.64;101497.28;5009417;28;20115;-62
2021/07/22 10:00:51;;;;;;;11.90;7.82;;;;;;;32.69;34.61;101493.97;5009354;28;20096;-62
2021/07/22 10:03:23;;;;;;;12.35;7.10;;;;;;;32.56;35.50;101494.84;5008858;28;20495;-62
2021/07/22 10:06:00;;;;;;;14.10;7.35;;;;;;;32.49;35.75;101496.75;5009267;28;20399;-62
2021/07/22 10:08:30;;;;;;;10.82;7.60;;;;;;;32.34;35.82;101502.47;5009120;28;20560;-62
2021/07/22 10:10:58;;;;;;;9.18;6.43;;;;;;;32.27;36.10;101490.78;5008870;28;20477;-62
2021/07/22 10:13:28;;;;;;;10.35;6.78;;;;;;;32.24;36.04;101497.47;5008757;28;20487;-62
2021/07/22 10:16:00;;;;;;;10.43;7.53;;;;;;;32.52;35.40;101484.66;5008689;28;20085;-62
2021/07/22 10:18:31;;;;;;;10.38;7.03;;;;;;;32.70;35.26;101479.31;5008924;28;20046;-62
2021/07/22 10:20:59;;;;;;;10.93;7.40;;;;;;;32.86;35.05;101475.31;5008671;28;20107;-62
2021/07/22 10:23:26;;;;;;;12.27;7.47;;;;;;;33.41;34.21;101470.34;5008629;28;20050;-62
2021/07/22 10:25:54;;;;;;;11.65;7.28;;;;;;;33.61;33.93;101465.56;5008608;28;20054;-62
2021/07/22 10:28:21;;;;;;;10.07;7.18;;;;;;;33.50;34.29;101461.69;5012327;28;20457;-62
2021/07/22 10:30:48;;;;;;;12.55;6.82;;;;;;;33.69;34.22;101464.44;5012914;28;20200;-62
2021/07/22 10:33:20;;;;;;;10.55;7.47;;;;;;;33.86;34.16;101459.28;5012540;28;20050;-62
2021/07/22 10:35:52;;;;;;;10.15;8.02;;;;;;;33.95;33.87;101459.81;5012501;28;20491;-63
2021/07/22 10:38:27;;;;;;;9.75;6.78;;;;;;;34.04;33.57;101449.47;5012544;28;20487;-62
2021/07/22 10:40:59;;;;;;;12.57;7.43;;;;;;;34.20;33.31;101448.84;5012278;28;20077;-63
2021/07/22 10:46:17;;;;;;;8.38;7.32;;;;;;;34.31;33.20;101441.78;5012151;28;20450;-62
2021/07/22 10:48:45;;;;;;;11.55;7.47;;;;;;;34.34;33.49;101444.91;5012548;28;20056;-63
2021/07/22 10:51:13;;;;;;;10.82;7.80;;;;;;;34.25;33.75;101438.09;5012240;28;20046;-63
2021/07/22 10:53:53;;;;;;;8.07;6.70;;;;;;;34.26;33.89;101442.47;5012058;28;20116;-63
2021/07/22 10:56:23;;;;;;;10.00;7.38;;;;;;;34.09;33.77;101434.06;5012170;28;20056;-63
2021/07/22 10:58:57;;;;;;;9.88;7.03;;;;;;;34.04;34.11;101430.38;5012279;28;20046;-63
2021/07/22 11:01:42;;;;;;;11.02;7.85;;;;;;;33.91;34.11;101432.19;5012021;28;20065;-62
2021/07/22 11:04:21;;;;;;;10.77;7.60;;;;;;;34.07;33.63;101436.22;5011728;28;20085;-63
2021/07/22 11:07:01;;;;;;;10.45;7.53;;;;;;;34.67;33.19;101430.00;5012013;28;20514;-62
2021/07/22 11:09:42;;;;;;;10.27;7.95;;;;;;;35.22;32.12;101419.13;5011753;28;20050;-63
2021/07/22 11:12:37;;;;;;;9.65;6.57;;;;;;;35.58;31.38;101419.97;5011797;28;20490;-62
2021/07/22 11:15:06;;;;;;;9.65;7.65;;;;;;;35.68;31.21;101420.25;5011538;28;20494;-63
2021/07/22 11:17:33;;;;;;;8.40;6.60;;;;;;;35.81;30.69;101410.94;5012024;28;20045;-63
2021/07/22 11:20:21;;;;;;;8.82;7.05;;;;;;;36.00;30.51;101413.53;5011578;28;20046;-63
2021/07/22 11:22:50;;;;;;;8.90;6.85;;;;;;;36.07;30.64;101400.59;5011613;28;20046;-63
2021/07/22 11:25:18;;;;;;;8.98;7.55;;;;;;;36.33;29.88;101401.06;5011747;28;20478;-63